createdAt,value
2023-01-29T00:02:20.854Z,6.00
2023-01-29T00:04:47.676Z,6.00
2023-01-29T00:07:14.478Z,6.00
2023-01-29T00:09:41.191Z,6.00
2023-01-29T00:12:11.154Z,6.00
2023-01-29T00:14:38.010Z,5.90
2023-01-29T00:17:04.953Z,5.90
2023-01-29T00:19:31.815Z,6.30
2023-01-29T00:21:58.715Z,5.90
2023-01-29T00:24:25.747Z,5.90
2023-01-29T00:26:52.558Z,5.90
2023-01-29T00:29:19.694Z,5.90
2023-01-29T00:31:46.423Z,5.90
2023-01-29T00:34:13.310Z,5.80
2023-01-29T00:36:40.122Z,5.80
2023-01-29T00:39:11.121Z,5.70
2023-01-29T00:41:56.695Z,5.80
2023-01-29T00:44:42.280Z,6.30
2023-01-29T00:47:44.495Z,5.70
2023-01-29T00:50:11.575Z,5.80
2023-01-29T00:52:39.343Z,5.80
2023-01-29T00:55:06.321Z,5.80
2023-01-29T00:57:33.605Z,5.80
2023-01-29T01:00:00.394Z,5.80
2023-01-29T01:02:45.868Z,5.80
2023-01-29T01:05:19.473Z,5.80
2023-01-29T01:07:52.227Z,6.20
2023-01-29T01:10:22.407Z,5.70
2023-01-29T01:12:56.428Z,5.70
2023-01-29T01:15:23.822Z,5.70
2023-01-29T01:17:54.369Z,5.70
2023-01-29T01:20:21.173Z,5.70
2023-01-29T01:22:47.907Z,6.30
2023-01-29T01:25:15.530Z,5.70
2023-01-29T01:27:42.420Z,6.40
2023-01-29T01:30:10.391Z,5.70
2023-01-29T01:32:37.261Z,5.70
2023-01-29T01:35:04.177Z,5.70
2023-01-29T01:37:31.064Z,5.70
2023-01-29T01:39:58.714Z,5.70
2023-01-29T01:42:30.522Z,5.70
2023-01-29T01:45:04.428Z,5.70
2023-01-29T01:47:33.737Z,5.70
2023-01-29T01:50:08.064Z,5.70
2023-01-29T01:52:35.466Z,5.70
2023-01-29T01:55:02.261Z,5.70
2023-01-29T01:57:29.020Z,5.70
2023-01-29T02:00:00.300Z,5.60
2023-01-29T02:02:45.647Z,5.70
2023-01-29T02:05:31.262Z,5.70
2023-01-29T02:08:16.925Z,5.70
2023-01-29T02:10:45.187Z,5.70
2023-01-29T02:13:12.343Z,5.60
2023-01-29T02:15:41.932Z,6.00
2023-01-29T02:18:09.207Z,5.70
2023-01-29T02:20:36.044Z,5.60
2023-01-29T02:23:15.039Z,5.70
2023-01-29T02:26:00.866Z,5.60
2023-01-29T02:28:30.938Z,5.60
2023-01-29T02:31:09.868Z,5.60
2023-01-29T02:33:48.937Z,5.60
2023-01-29T02:36:24.682Z,5.60
2023-01-29T02:38:57.561Z,5.70
2023-01-29T02:41:26.331Z,5.60
2023-01-29T02:43:56.100Z,5.70
2023-01-29T02:46:22.988Z,5.60
2023-01-29T02:48:56.954Z,5.60
2023-01-29T02:51:26.127Z,5.60
2023-01-29T02:54:02.741Z,5.60
2023-01-29T02:56:32.229Z,5.60
2023-01-29T02:59:03.407Z,6.60
2023-01-29T03:01:31.030Z,5.60
2023-01-29T03:04:01.942Z,5.60
2023-01-29T03:06:45.486Z,5.60
2023-01-29T03:09:18.994Z,5.60
2023-01-29T03:11:47.625Z,5.60
2023-01-29T03:14:20.443Z,5.60
2023-01-29T03:16:50.860Z,5.60
2023-01-29T03:19:23.209Z,5.60
2023-01-29T03:21:59.926Z,5.60
2023-01-29T03:24:45.440Z,5.60
2023-01-29T03:27:30.966Z,5.30
2023-01-29T03:30:16.687Z,5.70
2023-01-29T03:32:43.553Z,5.60
2023-01-29T03:35:10.593Z,6.30
2023-01-29T03:37:42.056Z,5.60
2023-01-29T03:40:09.456Z,5.60
2023-01-29T03:42:49.613Z,5.60
2023-01-29T03:45:18.823Z,5.60
2023-01-29T03:47:49.859Z,5.60
2023-01-29T03:50:16.847Z,5.60
2023-01-29T03:53:02.692Z,5.60
2023-01-29T03:55:33.467Z,5.60
2023-01-29T03:58:09.734Z,5.60
2023-01-29T04:00:40.997Z,5.60
2023-01-29T04:03:22.177Z,5.60
2023-01-29T04:06:03.442Z,5.60
2023-01-29T04:08:37.220Z,5.60
2023-01-29T04:11:07.442Z,5.60
2023-01-29T04:13:35.812Z,5.50
2023-01-29T04:18:47.779Z,5.00
2023-01-29T04:21:16.061Z,5.60
2023-01-29T04:23:53.875Z,5.40
2023-01-29T04:26:34.368Z,4.80
2023-01-29T04:29:19.746Z,5.50
2023-01-29T04:31:56.425Z,5.60
2023-01-29T04:34:29.053Z,5.50
2023-01-29T04:37:11.508Z,5.60
2023-01-29T04:45:52.120Z,5.10
2023-01-29T04:48:24.248Z,6.40
2023-01-29T04:50:57.356Z,5.30
2023-01-29T05:08:38.850Z,5.40
2023-01-29T05:19:32.374Z,5.90
2023-01-29T05:30:45.396Z,5.50
2023-01-29T05:33:22.839Z,5.40
2023-01-29T05:35:52.477Z,5.80
2023-01-29T05:38:21.540Z,5.60
2023-01-29T05:43:41.161Z,5.60
2023-01-29T05:46:14.173Z,5.60
2023-01-29T05:48:43.634Z,5.70
2023-01-29T05:51:19.998Z,5.70
2023-01-29T06:09:39.530Z,5.60
2023-01-29T06:12:09.154Z,6.70
2023-01-29T06:14:39.335Z,5.70
2023-01-29T06:17:09.020Z,5.70
2023-01-29T06:19:49.073Z,5.80
2023-01-29T06:36:40.806Z,5.80
2023-01-29T06:39:08.266Z,5.70
2023-01-29T07:05:15.058Z,6.10
2023-01-29T07:07:47.134Z,5.90
2023-01-29T07:10:24.487Z,5.90
2023-01-29T07:35:10.925Z,5.80
2023-01-29T07:37:38.778Z,6.00
2023-01-29T07:48:31.472Z,5.70
2023-01-29T07:53:53.387Z,5.70
2023-01-29T07:59:30.865Z,6.00
2023-01-29T08:04:33.628Z,6.00
2023-01-29T08:27:20.999Z,6.60
2023-01-29T08:41:58.710Z,6.40
2023-01-29T08:47:24.015Z,6.50
2023-01-29T08:49:55.744Z,6.40
2023-01-29T08:52:23.589Z,6.30
2023-01-29T09:03:04.453Z,6.70
2023-01-29T09:05:33.206Z,6.70
2023-01-29T09:08:01.410Z,6.40
2023-01-29T09:10:30.474Z,6.80
2023-01-29T09:12:58.119Z,6.80
2023-01-29T09:15:26.046Z,6.80
2023-01-29T09:18:06.234Z,6.80
2023-01-29T09:20:33.476Z,6.80
2023-01-29T09:23:05.512Z,6.80
2023-01-29T09:25:33.515Z,7.10
2023-01-29T09:28:02.599Z,6.90
2023-01-29T09:30:29.485Z,6.90
2023-01-29T09:32:56.779Z,6.90
2023-01-29T09:35:23.842Z,6.90
2023-01-29T09:37:50.993Z,6.90
2023-01-29T09:40:26.082Z,6.90
2023-01-29T09:42:59.710Z,7.20
2023-01-29T09:45:26.966Z,6.90
2023-01-29T09:47:56.160Z,7.00
2023-01-29T09:50:33.326Z,6.90
2023-01-29T09:53:20.499Z,7.00
2023-01-29T09:55:57.387Z,7.00
2023-01-29T09:58:38.394Z,7.00
2023-01-29T10:01:08.418Z,7.00
2023-01-29T10:03:47.980Z,7.00
2023-01-29T10:06:34.511Z,7.00
2023-01-29T10:09:01.850Z,7.00
2023-01-29T10:11:35.334Z,7.10
2023-01-29T10:14:02.233Z,7.10
2023-01-29T10:16:44.839Z,7.20
2023-01-29T10:19:35.702Z,7.20
2023-01-29T10:22:03.070Z,7.20
2023-01-29T10:24:30.083Z,7.20
2023-01-29T10:26:58.190Z,7.20
2023-01-29T10:29:26.537Z,7.30
2023-01-29T10:32:01.688Z,7.30
2023-01-29T10:34:52.055Z,7.20
2023-01-29T10:40:01.472Z,7.10
2023-01-29T10:42:43.591Z,7.10
2023-01-29T10:45:24.719Z,7.10
2023-01-29T10:47:52.804Z,7.10
2023-01-29T10:50:28.646Z,7.20
2023-01-29T10:53:11.287Z,7.10
2023-01-29T10:55:48.199Z,7.10
2023-01-29T10:58:15.508Z,7.20
2023-01-29T11:00:43.110Z,7.20
2023-01-29T11:03:26.781Z,7.20
2023-01-29T11:06:00.058Z,7.70
2023-01-29T11:08:35.011Z,7.10
2023-01-29T11:11:09.753Z,7.20
2023-01-29T11:13:39.051Z,7.20
2023-01-29T11:16:06.313Z,7.20
2023-01-29T11:18:53.482Z,7.20
2023-01-29T11:21:20.464Z,7.20
2023-01-29T11:23:47.424Z,7.30
2023-01-29T11:26:17.073Z,7.30
2023-01-29T11:28:44.699Z,7.20
2023-01-29T11:31:17.894Z,7.40
2023-01-29T11:33:45.031Z,7.50
2023-01-29T11:36:21.809Z,7.50
2023-01-29T11:38:48.554Z,7.60
2023-01-29T11:41:18.568Z,7.70
2023-01-29T11:43:45.390Z,7.70
2023-01-29T11:46:13.215Z,7.70
2023-01-29T11:48:40.725Z,7.80
2023-01-29T11:51:07.618Z,7.90
2023-01-29T11:53:35.942Z,7.90
2023-01-29T11:56:07.190Z,7.90
2023-01-29T11:58:34.650Z,8.00
2023-01-29T12:01:01.774Z,8.00
2023-01-29T12:03:34.448Z,8.10
2023-01-29T12:06:03.240Z,8.10
2023-01-29T12:08:34.003Z,8.10
2023-01-29T12:11:07.745Z,8.10
2023-01-29T12:13:36.283Z,7.90
2023-01-29T12:16:09.435Z,8.00
2023-01-29T12:18:40.177Z,8.10
2023-01-29T12:21:15.969Z,8.10
2023-01-29T12:23:58.672Z,8.10
2023-01-29T12:26:33.768Z,8.10
2023-01-29T12:29:10.090Z,8.10
2023-01-29T12:31:38.849Z,7.80
2023-01-29T12:34:11.263Z,8.10
2023-01-29T12:36:44.287Z,8.20
2023-01-29T12:39:11.434Z,8.20
2023-01-29T12:41:46.983Z,7.80
2023-01-29T12:44:15.954Z,8.00
2023-01-29T12:46:50.816Z,8.20
2023-01-29T12:49:19.461Z,8.20
2023-01-29T12:51:50.304Z,8.40
2023-01-29T12:54:18.857Z,8.30
2023-01-29T12:56:49.490Z,8.30
2023-01-29T12:59:37.017Z,8.00
2023-01-29T13:02:24.485Z,8.30
2023-01-29T13:05:10.024Z,8.30
2023-01-29T13:07:38.442Z,8.40
2023-01-29T13:10:08.181Z,8.40
2023-01-29T13:12:34.999Z,8.40
2023-01-29T13:15:22.853Z,8.40
2023-01-29T13:17:51.597Z,8.10
2023-01-29T13:20:23.454Z,8.50
2023-01-29T13:22:50.640Z,8.60
2023-01-29T13:25:18.479Z,8.60
2023-01-29T13:27:47.710Z,8.70
2023-01-29T13:30:30.809Z,8.70
2023-01-29T13:33:09.530Z,8.70
2023-01-29T13:35:37.930Z,8.70
2023-01-29T13:38:04.877Z,8.80
2023-01-29T13:40:31.784Z,8.80
2023-01-29T13:43:00.461Z,8.80
2023-01-29T13:45:27.421Z,8.70
2023-01-29T13:47:54.255Z,8.80
2023-01-29T13:50:24.079Z,8.70
2023-01-29T13:52:57.685Z,8.90
2023-01-29T13:55:38.605Z,9.00
2023-01-29T13:58:06.210Z,9.00
2023-01-29T14:00:34.329Z,9.00
2023-01-29T14:03:01.224Z,9.10
2023-01-29T14:05:31.535Z,9.10
2023-01-29T14:08:14.126Z,8.90
2023-01-29T14:10:41.508Z,9.10
2023-01-29T14:13:21.720Z,8.70
2023-01-29T14:15:56.496Z,9.00
2023-01-29T14:18:27.182Z,9.00
2023-01-29T14:21:01.152Z,9.10
2023-01-29T14:23:36.016Z,9.00
2023-01-29T14:26:04.877Z,9.10
2023-01-29T14:28:32.853Z,8.40
2023-01-29T14:31:00.038Z,9.10
2023-01-29T14:33:28.523Z,9.50
2023-01-29T14:35:56.684Z,9.10
2023-01-29T14:38:26.285Z,9.10
2023-01-29T14:40:54.054Z,9.10
2023-01-29T14:43:22.445Z,9.20
2023-01-29T14:45:49.765Z,9.20
2023-01-29T14:48:39.175Z,9.20
2023-01-29T14:51:10.462Z,9.20
2023-01-29T14:53:45.415Z,9.70
2023-01-29T14:56:35.836Z,8.80
2023-01-29T14:59:13.531Z,9.20
2023-01-29T15:01:40.725Z,9.20
2023-01-29T15:04:14.460Z,8.50
2023-01-29T15:06:51.223Z,9.30
2023-01-29T15:09:23.149Z,9.30
2023-01-29T15:11:52.585Z,9.30
2023-01-29T15:14:38.476Z,9.30
2023-01-29T15:17:07.524Z,9.30
2023-01-29T15:19:42.744Z,9.30
2023-01-29T15:22:10.997Z,9.20
2023-01-29T15:24:38.373Z,9.10
2023-01-29T15:27:07.380Z,9.00
2023-01-29T15:29:34.107Z,9.00
2023-01-29T15:32:00.966Z,8.90
2023-01-29T15:34:28.387Z,8.90
2023-01-29T15:36:55.262Z,8.90
2023-01-29T15:39:23.672Z,8.90
2023-01-29T15:41:51.805Z,8.90
2023-01-29T15:44:19.574Z,8.90
2023-01-29T15:46:50.606Z,8.90
2023-01-29T15:49:23.285Z,8.90
2023-01-29T15:51:50.040Z,9.00
2023-01-29T15:54:16.902Z,9.00
2023-01-29T15:56:44.807Z,9.00
2023-01-29T15:59:16.589Z,9.00
2023-01-29T16:01:43.504Z,9.10
2023-01-29T16:04:11.919Z,9.10
2023-01-29T16:06:39.304Z,9.10
2023-01-29T16:09:08.393Z,9.10
2023-01-29T16:11:35.240Z,9.00
2023-01-29T16:14:01.983Z,8.80
2023-01-29T16:16:28.782Z,9.00
2023-01-29T16:19:00.355Z,8.90
2023-01-29T16:21:34.938Z,8.90
2023-01-29T16:24:03.227Z,8.80
2023-01-29T16:26:34.230Z,8.70
2023-01-29T16:29:04.619Z,8.70
2023-01-29T16:31:31.881Z,8.70
2023-01-29T16:33:59.150Z,8.60
2023-01-29T16:36:27.203Z,8.60
2023-01-29T16:38:57.834Z,8.50
2023-01-29T16:41:24.491Z,8.50
2023-01-29T16:43:57.437Z,8.50
2023-01-29T16:46:24.466Z,8.60
2023-01-29T16:48:51.453Z,8.60
2023-01-29T16:51:31.309Z,8.60
2023-01-29T16:54:01.331Z,8.70
2023-01-29T16:56:28.987Z,8.70
2023-01-29T16:58:55.923Z,8.90
2023-01-29T17:01:23.301Z,8.70
2023-01-29T17:03:53.075Z,8.80
2023-01-29T17:06:21.584Z,8.80
2023-01-29T17:08:48.517Z,8.60
2023-01-29T17:11:23.557Z,8.40
2023-01-29T17:13:50.610Z,8.90
2023-01-29T17:16:23.760Z,8.90
2023-01-29T17:18:50.732Z,8.90
2023-01-29T17:21:17.599Z,8.80
2023-01-29T17:23:44.419Z,8.80
2023-01-29T17:26:17.739Z,8.80
2023-01-29T17:28:44.860Z,8.70
2023-01-29T17:31:11.737Z,8.70
2023-01-29T17:33:40.622Z,9.10
2023-01-29T17:36:14.294Z,8.60
2023-01-29T17:38:41.695Z,8.70
2023-01-29T17:41:11.715Z,8.70
2023-01-29T17:43:38.620Z,8.60
2023-01-29T17:46:52.485Z,8.70
2023-01-29T17:49:22.919Z,8.70
2023-01-29T17:51:50.164Z,8.70
2023-01-29T17:54:17.083Z,8.70
2023-01-29T17:56:43.911Z,8.80
2023-01-29T17:59:13.240Z,8.80
2023-01-29T18:01:40.154Z,8.80
2023-01-29T18:04:07.288Z,8.90
2023-01-29T18:06:34.129Z,8.90
2023-01-29T18:09:00.856Z,8.90
2023-01-29T18:11:28.357Z,8.90
2023-01-29T18:13:55.685Z,8.90
2023-01-29T18:16:22.492Z,8.90
2023-01-29T18:18:49.712Z,8.90
2023-01-29T18:21:16.394Z,9.00
2023-01-29T18:23:43.200Z,8.80
2023-01-29T18:26:10.783Z,8.80
2023-01-29T18:28:37.589Z,8.70
2023-01-29T18:31:04.835Z,8.70
2023-01-29T18:33:34.352Z,8.60
2023-01-29T18:36:01.181Z,8.60
2023-01-29T18:38:28.028Z,8.60
2023-01-29T18:40:55.212Z,8.60
2023-01-29T18:43:22.555Z,8.50
2023-01-29T18:45:49.556Z,8.50
2023-01-29T18:48:16.449Z,8.50
2023-01-29T18:50:49.534Z,8.50
2023-01-29T18:53:16.376Z,8.40
2023-01-29T18:55:43.541Z,8.40
2023-01-29T18:58:26.002Z,8.20
2023-01-29T19:00:55.517Z,8.30
2023-01-29T19:03:22.380Z,8.30
2023-01-29T19:05:49.131Z,8.20
2023-01-29T19:08:15.971Z,8.20
2023-01-29T19:10:42.955Z,8.10
2023-01-29T19:13:09.765Z,8.10
2023-01-29T19:15:36.507Z,8.10
2023-01-29T19:18:04.312Z,8.10
2023-01-29T19:20:31.316Z,8.10
2023-01-29T19:22:58.311Z,8.00
2023-01-29T19:25:25.130Z,8.00
2023-01-29T19:27:51.973Z,8.00
2023-01-29T19:30:19.240Z,8.00
2023-01-29T19:32:46.230Z,8.00
2023-01-29T19:35:13.201Z,8.00
2023-01-29T19:37:40.079Z,7.90
2023-01-29T19:40:08.337Z,8.00
2023-01-29T19:42:37.560Z,7.90
2023-01-29T19:45:05.286Z,8.40
2023-01-29T19:47:32.610Z,8.00
2023-01-29T19:49:59.491Z,8.00
2023-01-29T19:52:50.346Z,8.00
2023-01-29T19:55:18.297Z,8.00
2023-01-29T19:57:45.736Z,8.00
2023-01-29T20:00:12.865Z,8.00
2023-01-29T20:02:39.567Z,7.90
2023-01-29T20:05:07.969Z,8.00
2023-01-29T20:07:36.007Z,7.90
2023-01-29T20:10:03.536Z,7.90
2023-01-29T20:12:30.504Z,7.90
2023-01-29T20:15:02.950Z,8.10
2023-01-29T20:17:35.713Z,7.80
2023-01-29T20:20:03.968Z,7.80
2023-01-29T20:22:34.093Z,7.70
2023-01-29T20:25:00.950Z,7.70
2023-01-29T20:27:27.789Z,7.60
2023-01-29T20:29:54.539Z,8.00
2023-01-29T20:32:21.296Z,7.60
2023-01-29T20:34:51.989Z,7.50
2023-01-29T20:37:19.958Z,7.50
2023-01-29T20:39:46.933Z,7.50
2023-01-29T20:42:13.919Z,7.50
2023-01-29T20:44:40.847Z,7.40
2023-01-29T20:47:08.612Z,7.40
2023-01-29T20:49:35.372Z,7.40
2023-01-29T20:52:02.391Z,7.30
2023-01-29T20:54:30.175Z,7.30
2023-01-29T20:56:57.103Z,7.30
2023-01-29T20:59:23.923Z,7.30
2023-01-29T21:01:50.803Z,7.30
2023-01-29T21:04:17.592Z,7.20
2023-01-29T21:06:44.467Z,7.20
2023-01-29T21:09:11.272Z,7.20
2023-01-29T21:11:38.111Z,7.10
2023-01-29T21:14:05.105Z,7.10
2023-01-29T21:16:31.964Z,7.10
2023-01-29T21:18:58.880Z,7.10
2023-01-29T21:21:26.867Z,7.10
2023-01-29T21:23:54.069Z,7.00
2023-01-29T21:26:21.127Z,7.00
2023-01-29T21:28:48.086Z,7.00
2023-01-29T21:31:19.163Z,6.90
2023-01-29T21:39:21.260Z,6.90
2023-01-29T21:45:00.116Z,6.70
2023-01-29T21:47:31.507Z,6.90
2023-01-29T21:55:28.856Z,7.00
2023-01-29T22:00:39.928Z,6.80
2023-01-29T22:20:25.113Z,7.10
2023-01-29T22:22:52.069Z,7.10
2023-01-29T22:25:21.216Z,7.10
2023-01-29T22:27:53.805Z,7.10
2023-01-29T22:38:38.871Z,6.90
2023-01-29T22:41:28.363Z,6.80
2023-01-29T22:53:34.208Z,6.70
2023-01-29T22:56:03.668Z,6.60
2023-01-29T22:58:31.126Z,6.60
2023-01-29T23:01:02.827Z,6.60
2023-01-29T23:06:11.563Z,6.50
2023-01-29T23:08:39.556Z,6.10
2023-01-29T23:14:20.444Z,6.60
2023-01-29T23:16:47.633Z,5.40
2023-01-29T23:19:15.207Z,6.60
2023-01-29T23:21:44.810Z,6.80
2023-01-29T23:24:15.120Z,6.60
2023-01-29T23:27:00.910Z,6.60
2023-01-29T23:29:28.041Z,6.60
2023-01-29T23:31:55.207Z,6.50
2023-01-29T23:34:22.569Z,6.60
2023-01-29T23:36:50.224Z,6.60
2023-01-29T23:39:17.154Z,6.60
2023-01-29T23:41:44.596Z,6.60
2023-01-29T23:44:21.035Z,6.60
2023-01-29T23:46:48.559Z,7.20
2023-01-29T23:49:18.994Z,6.70
2023-01-29T23:51:51.137Z,6.70
2023-01-29T23:54:27.199Z,6.70
2023-01-29T23:56:54.561Z,6.70
2023-01-29T23:59:22.747Z,6.80
